Time;durP1;ratioP1;P1;durP2;ratioP2;P2;SDS_P1;SDS_P2;PMS_P1;PMS_P2;Temp;Humidity;BMP_temperature;BMP_pressure;BME280_temperature;BME280_humidity;BME280_pressure;Samples;Min_cycle;Max_cycle;Signal;HPM_P1;HPM_P2
2022/10/23 00:00:36;;;;;;;17.75;4.53;;;;;;;13.55;100.00;100487.25;8358168;28;20379;-48
2022/10/23 00:04:36;;;;;;;11.77;4.70;;;;;;;13.54;100.00;100484.69;8358642;28;20033;-47
2022/10/23 00:08:38;;;;;;;12.38;5.68;;;;;;;13.55;100.00;100473.69;8358401;28;20033;-49
2022/10/23 00:12:39;;;;;;;14.32;5.90;;;;;;;13.51;100.00;100468.75;8359976;28;20091;-47
2022/10/23 00:16:39;;;;;;;14.50;7.85;;;;;;;13.47;100.00;100462.78;8357678;28;20049;-48
2022/10/23 00:20:40;;;;;;;11.40;4.90;;;;;;;13.38;100.00;100463.75;8359143;28;20041;-48
2022/10/23 00:24:41;;;;;;;15.38;4.63;;;;;;;13.05;100.00;100479.97;8359252;28;20044;-48
2022/10/23 00:28:44;;;;;;;14.02;6.28;;;;;;;12.99;100.00;100483.28;8358139;28;20041;-47
2022/10/23 00:32:45;;;;;;;16.67;8.27;;;;;;;12.93;100.00;100482.00;8358211;28;20048;-48
2022/10/23 00:36:45;;;;;;;10.38;5.60;;;;;;;13.01;100.00;100470.41;8359003;28;20037;-49
2022/10/23 00:40:46;;;;;;;11.60;4.93;;;;;;;12.98;100.00;100470.69;8356334;28;20091;-48
2022/10/23 00:49:03;;;;;;;12.60;6.00;;;;;;;12.67;100.00;100456.69;8320376;27;20125;-46
2022/10/23 00:53:04;;;;;;;11.50;5.95;;;;;;;12.67;100.00;100461.25;8287202;28;20045;-47
2022/10/23 00:57:08;;;;;;;16.33;8.27;;;;;;;12.71;100.00;100463.50;8287707;28;20128;-46
2022/10/23 01:01:21;;;;;;;13.82;6.75;;;;;;;12.82;100.00;100459.69;8251908;28;20045;-46
2022/10/23 01:05:29;;;;;;;13.35;6.72;;;;;;;12.88;100.00;100453.66;8269724;28;20041;-50
2022/10/23 01:14:01;;;;;;;14.18;6.32;;;;;;;12.94;100.00;100461.16;8462302;27;20526;-48
2022/10/23 01:18:11;;;;;;;15.45;6.63;;;;;;;13.09;100.00;100456.91;8453714;28;20092;-48
2022/10/23 01:31:30;;;;;;;19.15;5.95;;;;;;;13.02;100.00;100455.84;8462808;27;20124;-48
2022/10/23 01:35:50;;;;;;;10.23;5.20;;;;;;;13.12;100.00;100443.03;8452990;28;20436;-48
2022/10/23 01:39:55;;;;;;;14.82;6.15;;;;;;;13.11;100.00;100430.44;8453168;28;20056;-47
2022/10/23 01:44:06;;;;;;;21.70;5.57;;;;;;;13.13;100.00;100432.00;8452823;28;20043;-49
2022/10/23 01:48:13;;;;;;;16.40;5.93;;;;;;;13.17;100.00;100427.09;8453118;28;20038;-48
2022/10/23 01:52:16;;;;;;;15.60;5.70;;;;;;;13.20;100.00;100413.19;8453196;28;20504;-46
2022/10/23 01:56:24;;;;;;;11.23;6.13;;;;;;;13.17;100.00;100410.81;8452062;28;20546;-46
2022/10/23 02:00:25;;;;;;;13.52;6.88;;;;;;;13.20;100.00;100395.06;8451717;27;20104;-47
2022/10/23 02:04:34;;;;;;;10.20;5.78;;;;;;;13.27;100.00;100390.69;8451916;28;20036;-50
2022/10/23 02:08:35;;;;;;;13.82;6.38;;;;;;;13.32;100.00;100392.91;8452214;28;20039;-46
2022/10/23 02:12:54;;;;;;;15.10;5.72;;;;;;;13.34;100.00;100389.06;8452809;28;20042;-47
2022/10/23 02:17:08;;;;;;;12.90;6.22;;;;;;;13.40;100.00;100387.53;8450238;28;20044;-48
2022/10/23 02:21:12;;;;;;;12.13;5.30;;;;;;;13.42;100.00;100380.94;8451463;28;20040;-48
2022/10/23 02:25:16;;;;;;;;;;;;;;;13.48;100.00;100376.72;8452668;28;20040;-46
2022/10/23 02:29:29;;;;;;;11.73;4.90;;;;;;;13.40;100.00;100368.53;8451345;28;20384;-47
2022/10/23 02:33:34;;;;;;;12.60;6.18;;;;;;;13.41;100.00;100364.78;8451755;28;20401;-47
2022/10/23 02:37:35;;;;;;;10.65;4.78;;;;;;;13.46;100.00;100357.03;8452052;28;20040;-46
2022/10/23 02:41:45;;;;;;;14.77;5.10;;;;;;;13.50;100.00;100356.53;8435154;28;20505;-47
2022/10/23 02:45:58;;;;;;;20.58;6.10;;;;;;;13.52;100.00;100348.22;8429146;28;20067;-46
2022/10/23 02:50:12;;;;;;;8.45;4.78;;;;;;;13.56;100.00;100352.31;8428165;28;20500;-47
2022/10/23 02:54:37;;;;;;;16.63;5.53;;;;;;;13.60;100.00;100331.94;8427569;28;20390;-47
2022/10/23 02:58:55;;;;;;;10.70;5.97;;;;;;;13.61;100.00;100333.66;8424755;28;20036;-47
2022/10/23 03:03:04;;;;;;;10.05;4.93;;;;;;;13.64;100.00;100327.91;8428273;28;20035;-47
2022/10/23 03:07:10;;;;;;;19.17;5.38;;;;;;;13.69;100.00;100325.53;8427249;28;20040;-48
2022/10/23 03:11:11;;;;;;;10.77;4.57;;;;;;;13.72;100.00;100319.75;8427721;28;20122;-47
2022/10/23 03:15:12;;;;;;;10.43;4.05;;;;;;;13.69;100.00;100326.38;8428038;28;20040;-47
2022/10/23 03:19:13;;;;;;;9.68;4.78;;;;;;;13.56;100.00;100309.72;8427662;28;20032;-47
2022/10/23 03:23:14;;;;;;;9.60;4.38;;;;;;;13.50;100.00;100304.94;8426920;28;20528;-48
2022/10/23 03:27:16;;;;;;;11.45;4.78;;;;;;;13.50;100.00;100294.06;8427703;28;20040;-46
2022/10/23 03:31:17;;;;;;;13.27;4.68;;;;;;;13.55;100.00;100301.72;8427176;28;20597;-46
2022/10/23 03:35:21;;;;;;;15.48;4.30;;;;;;;13.63;100.00;100315.31;8427401;28;20515;-49
2022/10/23 03:39:21;;;;;;;8.15;3.97;;;;;;;13.62;100.00;100314.47;8427146;28;20431;-46
2022/10/23 03:43:22;;;;;;;10.57;4.50;;;;;;;13.55;100.00;100318.84;8427492;28;20119;-47
2022/10/23 03:47:23;;;;;;;14.50;4.63;;;;;;;13.54;100.00;100310.88;8427114;28;20067;-46
2022/10/23 03:51:25;;;;;;;13.68;5.03;;;;;;;13.47;100.00;100301.69;8426021;28;20040;-47
2022/10/23 03:55:26;;;;;;;11.45;4.60;;;;;;;13.49;100.00;100308.66;8427009;28;20040;-47
2022/10/23 03:59:29;;;;;;;12.05;4.20;;;;;;;13.50;100.00;100302.22;8425874;28;20063;-46
2022/10/23 04:03:30;;;;;;;16.00;5.20;;;;;;;13.46;100.00;100297.28;8426295;28;20548;-46
2022/10/23 04:07:31;;;;;;;9.70;4.35;;;;;;;13.43;100.00;100297.59;8425419;28;20417;-50
2022/10/23 04:11:34;;;;;;;10.47;4.43;;;;;;;13.42;100.00;100295.91;8424461;28;20047;-49
2022/10/23 04:15:35;;;;;;;13.32;4.68;;;;;;;13.45;100.00;100301.84;8424882;28;20076;-46
2022/10/23 04:19:36;;;;;;;9.60;4.50;;;;;;;13.43;100.00;100286.75;8425043;28;20040;-46
2022/10/23 04:23:38;;;;;;;14.27;5.50;;;;;;;13.38;100.00;100283.66;8426054;28;20036;-47
2022/10/23 04:27:44;;;;;;;14.93;5.50;;;;;;;13.28;100.00;100269.38;8425814;28;20420;-46
2022/10/23 04:31:44;;;;;;;14.20;5.07;;;;;;;13.28;100.00;100261.22;8423632;28;20509;-46
2022/10/23 04:35:45;;;;;;;12.82;5.38;;;;;;;13.36;100.00;100263.97;8425559;28;20076;-46
2022/10/23 04:39:46;;;;;;;8.57;4.60;;;;;;;13.41;100.00;100261.59;8427987;28;20046;-46
2022/10/23 04:43:47;;;;;;;14.55;5.15;;;;;;;13.38;100.00;100256.50;8426717;28;20040;-46
2022/10/23 04:47:49;;;;;;;15.00;4.97;;;;;;;13.48;100.00;100251.81;8424627;28;20501;-45
2022/10/23 04:51:50;;;;;;;10.30;4.50;;;;;;;13.47;100.00;100255.50;8424767;28;20401;-47
2022/10/23 04:56:13;;;;;;;11.57;5.43;;;;;;;13.51;100.00;100251.47;8423708;28;20111;-46
2022/10/23 05:00:22;;;;;;;15.50;5.40;;;;;;;13.50;100.00;100257.91;8423878;28;20464;-47
2022/10/23 05:04:26;;;;;;;13.48;5.30;;;;;;;13.53;100.00;100263.00;8423361;28;20119;-46
2022/10/23 05:08:46;;;;;;;13.98;5.88;;;;;;;13.40;100.00;100243.63;8422746;28;20036;-46
2022/10/23 05:13:07;;;;;;;17.10;5.75;;;;;;;13.32;100.00;100236.31;8414464;28;20043;-46
2022/10/23 05:17:16;;;;;;;11.57;5.32;;;;;;;13.34;100.00;100238.84;8423928;28;20036;-46
2022/10/23 05:21:24;;;;;;;15.48;5.55;;;;;;;13.27;100.00;100226.97;8424029;28;20039;-48
2022/10/23 05:25:26;;;;;;;14.27;5.72;;;;;;;13.26;100.00;100238.81;8421947;28;20433;-46
2022/10/23 05:29:36;;;;;;;13.73;6.13;;;;;;;13.18;100.00;100214.38;8423563;28;20258;-46
2022/10/23 05:33:37;;;;;;;14.07;5.72;;;;;;;13.26;100.00;100215.25;8428975;28;20047;-47
2022/10/23 05:37:42;;;;;;;13.50;5.65;;;;;;;13.14;100.00;100211.13;8422670;28;20036;-48
2022/10/23 05:41:47;;;;;;;13.13;5.60;;;;;;;13.27;100.00;100211.50;8424181;28;20080;-46
2022/10/23 05:45:54;;;;;;;12.93;5.70;;;;;;;13.25;100.00;100207.25;8421963;28;20040;-46
2022/10/23 05:50:14;;;;;;;12.35;6.50;;;;;;;13.19;100.00;100203.34;8423506;28;20042;-46
2022/10/23 05:54:32;;;;;;;15.13;6.30;;;;;;;13.18;100.00;100190.78;8415853;28;20052;-46
2022/10/23 05:58:47;;;;;;;15.77;5.80;;;;;;;13.19;100.00;100194.34;8414392;28;20605;-46
2022/10/23 06:02:59;;;;;;;13.68;5.78;;;;;;;13.16;100.00;100183.81;8422757;28;20089;-47
2022/10/23 06:07:10;;;;;;;12.32;5.55;;;;;;;13.13;100.00;100181.44;8423084;28;20059;-46
2022/10/23 06:11:13;;;;;;;9.75;5.60;;;;;;;13.13;100.00;100181.44;8423156;28;20053;-46
2022/10/23 06:15:18;;;;;;;14.43;6.10;;;;;;;13.18;100.00;100177.19;8416121;28;20055;-46
2022/10/23 06:19:31;;;;;;;11.38;5.95;;;;;;;13.21;100.00;100171.44;8425095;28;20063;-48
2022/10/23 06:23:33;;;;;;;11.07;5.72;;;;;;;13.27;100.00;100178.09;8429634;28;20052;-46
2022/10/23 06:27:54;;;;;;;9.68;5.47;;;;;;;13.31;100.00;100174.88;8426483;28;20029;-47
2022/10/23 06:31:54;;;;;;;11.10;6.30;;;;;;;13.36;100.00;100177.94;8401544;28;20540;-46
2022/10/23 06:35:56;;;;;;;21.67;6.57;;;;;;;13.39;100.00;100183.03;8400184;28;20051;-46
2022/10/23 06:39:57;;;;;;;10.70;6.18;;;;;;;13.49;100.00;100172.88;8427647;28;20040;-47
2022/10/23 06:44:10;;;;;;;14.25;5.47;;;;;;;13.60;100.00;100163.53;8433684;28;20086;-46
2022/10/23 06:48:16;;;;;;;15.60;5.05;;;;;;;13.67;100.00;100159.13;8393551;28;20032;-46
2022/10/23 06:52:35;;;;;;;13.02;4.75;;;;;;;13.75;100.00;100156.41;8393565;28;20067;-47
2022/10/23 06:56:37;;;;;;;13.35;7.47;;;;;;;13.80;100.00;100151.31;8399772;28;20040;-46
2022/10/23 07:00:40;;;;;;;11.27;5.07;;;;;;;13.89;100.00;100153.03;8426807;28;20032;-46
2022/10/23 07:04:41;;;;;;;10.70;4.18;;;;;;;13.95;100.00;100156.91;8426039;28;20028;-47
2022/10/23 07:08:48;;;;;;;8.82;3.83;;;;;;;13.97;100.00;100144.88;8428183;28;20527;-48
2022/10/23 07:13:10;;;;;;;14.90;4.60;;;;;;;14.00;100.00;100154.53;8424495;28;20497;-48
2022/10/23 07:17:13;;;;;;;16.70;6.35;;;;;;;14.04;100.00;100145.88;8428010;28;20055;-47
2022/10/23 07:21:15;;;;;;;13.48;7.55;;;;;;;14.15;100.00;100147.41;8401006;28;20115;-46
2022/10/23 07:25:16;;;;;;;15.85;5.78;;;;;;;14.24;100.00;100162.72;8394573;28;20037;-49
2022/10/23 07:29:18;;;;;;;18.58;6.25;;;;;;;14.35;100.00;100165.06;8411893;28;20515;-46
2022/10/23 07:33:22;;;;;;;10.07;4.60;;;;;;;14.34;100.00;100153.34;8425765;28;20260;-46
2022/10/23 07:37:31;;;;;;;13.13;5.28;;;;;;;14.27;100.00;100160.47;8418247;28;20037;-46
2022/10/23 07:41:35;;;;;;;9.30;4.07;;;;;;;14.39;100.00;100140.06;8425642;28;20386;-47
2022/10/23 07:45:36;;;;;;;12.65;4.53;;;;;;;14.52;100.00;100134.06;8414090;28;20039;-46
2022/10/23 07:49:47;;;;;;;7.93;4.32;;;;;;;14.82;100.00;100136.84;8411514;28;20041;-46
2022/10/23 07:53:48;;;;;;;7.22;3.50;;;;;;;14.87;100.00;100133.56;8412642;28;20048;-47
2022/10/23 07:58:08;;;;;;;10.80;3.33;;;;;;;15.10;100.00;100118.97;8420166;28;20028;-46
2022/10/23 08:02:15;;;;;;;9.70;2.85;;;;;;;15.20;100.00;100125.06;8418811;28;20032;-48
2022/10/23 08:06:17;;;;;;;9.45;3.42;;;;;;;15.26;100.00;100134.41;8404484;28;20036;-46
2022/10/23 08:10:20;;;;;;;11.13;3.60;;;;;;;15.23;100.00;100149.22;8391244;28;20052;-46
2022/10/23 08:14:21;;;;;;;6.50;3.22;;;;;;;15.29;100.00;100145.78;8420600;28;20040;-48
2022/10/23 08:18:23;;;;;;;7.55;2.72;;;;;;;15.32;100.00;100139.97;8419752;28;20112;-46
2022/10/23 08:22:24;;;;;;;7.45;3.25;;;;;;;15.53;100.00;100142.91;8405818;28;20039;-46
2022/10/23 08:26:28;;;;;;;6.97;2.92;;;;;;;15.63;100.00;100132.63;8418412;28;20570;-47
2022/10/23 08:30:29;;;;;;;6.47;2.42;;;;;;;15.77;100.00;100118.19;8420249;28;20047;-49
2022/10/23 08:34:31;;;;;;;7.35;2.72;;;;;;;15.98;100.00;100130.28;8421735;28;20401;-46
2022/10/23 08:38:35;;;;;;;3.35;2.00;;;;;;;16.19;100.00;100127.72;8413423;28;20450;-47
2022/10/23 08:42:40;;;;;;;6.20;2.72;;;;;;;16.47;100.00;100120.59;8423506;28;20047;-47
2022/10/23 08:46:48;;;;;;;4.25;2.10;;;;;;;16.86;100.00;100115.66;8422485;28;20566;-46
2022/10/23 08:51:17;;;;;;;9.60;2.47;;;;;;;17.37;100.00;100106.41;8415481;28;20498;-48
2022/10/23 08:55:32;;;;;;;11.20;2.08;;;;;;;17.66;98.59;100094.53;8414416;28;20059;-46
2022/10/23 08:59:39;;;;;;;9.07;2.55;;;;;;;18.14;95.12;100091.78;8406992;28;20050;-47
2022/10/23 09:03:42;;;;;;;6.82;2.70;;;;;;;18.44;93.45;100093.28;8381880;28;20119;-47
2022/10/23 09:08:11;;;;;;;10.02;2.85;;;;;;;18.96;91.88;100088.06;8416609;28;20040;-46
2022/10/23 09:12:19;;;;;;;3.78;1.75;;;;;;;19.08;89.44;100072.72;8415579;28;20066;-49
2022/10/23 09:16:59;;;;;;;6.05;2.20;;;;;;;18.43;92.74;100063.38;8416931;28;20036;-47
2022/10/23 09:21:01;;;;;;;8.02;2.78;;;;;;;18.26;95.54;100062.81;8414658;28;20036;-46
2022/10/23 09:25:07;;;;;;;2.67;1.98;;;;;;;18.19;97.39;100055.59;8400312;28;20040;-47
2022/10/23 09:29:31;;;;;;;5.82;1.95;;;;;;;18.58;94.77;100050.41;8401485;28;20040;-46
2022/10/23 09:33:33;;;;;;;5.95;1.83;;;;;;;18.74;93.90;100050.03;8417679;28;20036;-46
2022/10/23 09:37:36;;;;;;;3.45;1.80;;;;;;;18.23;96.91;100054.16;8417812;28;20433;-47
2022/10/23 09:41:39;;;;;;;7.25;2.08;;;;;;;17.83;100.00;100039.34;8418505;28;20207;-46
2022/10/23 09:45:41;;;;;;;5.25;1.88;;;;;;;17.68;100.00;100032.31;8415843;28;20063;-47
2022/10/23 09:49:48;;;;;;;8.15;2.20;;;;;;;17.55;100.00;100019.38;8417459;28;20040;-50
2022/10/23 09:58:03;;;;;;;7.88;2.00;;;;;;;17.52;100.00;99992.44;8425428;27;20239;-50
2022/10/23 10:02:28;;;;;;;5.72;1.98;;;;;;;17.64;100.00;99996.31;8412002;28;20489;-47
2022/10/23 10:06:44;;;;;;;9.30;1.95;;;;;;;17.72;100.00;99998.91;8378811;28;20039;-47
2022/10/23 10:10:51;;;;;;;4.88;2.00;;;;;;;17.84;100.00;99975.41;8360386;28;20494;-46
2022/10/23 10:15:02;;;;;;;7.60;1.80;;;;;;;17.89;100.00;99983.00;8366218;28;20751;-48
2022/10/23 10:19:43;;;;;;;6.65;1.83;;;;;;;18.07;100.00;99981.47;8370647;28;20414;-47
2022/10/23 10:24:09;;;;;;;4.93;1.60;;;;;;;18.21;100.00;99972.25;8395989;28;20398;-48
2022/10/23 10:28:30;;;;;;;3.67;1.35;;;;;;;18.25;100.00;99972.72;8403292;28;20040;-49
2022/10/23 10:32:44;;;;;;;6.68;1.60;;;;;;;18.25;100.00;99950.81;8400223;28;20115;-49
2022/10/23 10:36:54;;;;;;;;;;;;;;;18.31;100.00;99958.22;8390872;28;20035;-47
2022/10/23 10:45:18;;;;;;;11.40;1.85;;;;;;;18.54;98.81;99951.38;8394364;27;20125;-50
2022/10/23 10:58:09;;;;;;;3.30;1.30;;;;;;;18.80;96.63;99950.63;8424382;27;20404;-47
2022/10/23 11:02:37;;;;;;;5.30;1.73;;;;;;;18.63;97.14;99961.09;8403121;28;20516;-46
2022/10/23 11:06:40;;;;;;;3.40;1.48;;;;;;;18.42;99.72;99930.31;8406259;28;20040;-48
2022/10/23 11:10:45;;;;;;;4.70;1.38;;;;;;;18.17;100.00;99951.81;8377855;28;20451;-47
2022/10/23 11:14:46;;;;;;;3.20;1.60;;;;;;;18.12;100.00;99927.00;8385921;28;20131;-46
2022/10/23 11:19:15;;;;;;;3.40;1.50;;;;;;;18.21;100.00;99917.53;8388378;28;20048;-47
2022/10/23 11:23:52;;;;;;;4.70;1.55;;;;;;;18.55;100.00;99895.59;8398070;28;20130;-47
2022/10/23 11:28:14;;;;;;;8.63;1.45;;;;;;;19.13;96.19;99903.03;8396965;28;20362;-47
2022/10/23 11:32:33;;;;;;;3.78;1.25;;;;;;;19.89;92.48;99895.16;8398784;28;20486;-47
2022/10/23 11:36:53;;;;;;;3.33;1.25;;;;;;;20.48;89.27;99895.78;8399062;28;20036;-48
2022/10/23 11:40:57;;;;;;;4.43;1.30;;;;;;;20.68;86.33;99893.78;8405772;28;20093;-48
2022/10/23 11:44:58;;;;;;;7.15;1.25;;;;;;;21.36;83.61;99881.88;8411627;28;20096;-48
2022/10/23 11:49:01;;;;;;;4.82;0.93;;;;;;;21.47;81.27;99877.53;8410745;28;20044;-49
2022/10/23 11:53:09;;;;;;;6.00;1.02;;;;;;;21.21;82.53;99881.38;8411558;28;20320;-49
2022/10/23 11:57:13;;;;;;;2.33;1.05;;;;;;;21.19;82.47;99875.25;8410176;28;20168;-51
2022/10/23 12:01:32;;;;;;;;;;;;;;;21.18;80.92;99876.31;8405160;28;20508;-47
2022/10/23 12:05:40;;;;;;;5.07;0.93;;;;;;;21.33;81.09;99865.81;8392594;28;19966;-47
2022/10/23 12:09:50;;;;;;;5.72;1.38;;;;;;;21.36;79.34;99859.88;8379352;28;20039;-49
2022/10/23 12:13:51;;;;;;;5.95;1.05;;;;;;;21.23;80.12;99866.31;8382640;28;20116;-48
2022/10/23 12:17:54;;;;;;;5.32;1.20;;;;;;;20.66;82.64;99868.44;8383376;28;20025;-48
2022/10/23 12:22:01;;;;;;;6.03;1.38;;;;;;;20.44;84.49;99864.34;8386795;28;20044;-49
2022/10/23 12:26:41;;;;;;;2.45;1.63;;;;;;;20.34;85.00;99847.50;8390992;28;20055;-47
2022/10/23 12:30:58;;;;;;;3.78;1.95;;;;;;;20.25;87.02;99843.34;8387312;28;20450;-48
2022/10/23 12:39:27;;;;;;;5.45;1.48;;;;;;;19.95;88.91;99825.72;8424397;27;20546;-47
2022/10/23 12:43:31;;;;;;;4.28;1.45;;;;;;;19.94;89.12;99813.06;8413516;28;20502;-49
2022/10/23 12:47:32;;;;;;;;;;;;;;;19.96;88.85;99810.91;8412660;28;20461;-47
2022/10/23 12:51:34;;;;;;;4.65;1.58;;;;;;;19.97;89.93;99790.66;8411528;28;19924;-46
2022/10/23 12:55:56;;;;;;;5.35;1.60;;;;;;;20.02;90.03;99799.06;8412987;28;20029;-47
2022/10/23 13:00:09;;;;;;;8.80;2.00;;;;;;;20.02;89.19;99785.34;8380325;28;20045;-48
2022/10/23 13:08:22;;;;;;;4.05;1.40;;;;;;;19.88;90.39;99770.84;8429889;27;20125;-47
2022/10/23 13:12:49;;;;;;;2.88;1.42;;;;;;;19.93;89.58;99767.44;8446545;28;20374;-49
2022/10/23 13:16:58;;;;;;;5.15;1.58;;;;;;;20.10;89.34;99763.16;8446244;28;20069;-48
2022/10/23 13:20:59;;;;;;;4.75;1.60;;;;;;;20.23;90.39;99746.63;8446644;28;20509;-47
2022/10/23 13:25:00;;;;;;;4.85;1.75;;;;;;;20.15;89.73;99749.63;8442444;28;20529;-48
2022/10/23 13:29:03;;;;;;;5.20;1.90;;;;;;;20.02;90.57;99741.44;8444626;28;20413;-48
2022/10/23 13:33:24;;;;;;;9.30;1.87;;;;;;;20.03;91.70;99743.16;8443652;28;20043;-46
2022/10/23 13:37:27;;;;;;;4.97;2.05;;;;;;;20.00;91.55;99729.88;8445626;27;20035;-49
2022/10/23 13:41:35;;;;;;;5.07;1.55;;;;;;;19.98;91.40;99715.50;8455344;27;20036;-47
2022/10/23 13:45:40;;;;;;;5.60;1.75;;;;;;;19.98;91.66;99721.00;8436145;28;20123;-47
2022/10/23 13:49:40;;;;;;;5.05;1.83;;;;;;;20.03;91.15;99712.97;8433795;28;20060;-49
2022/10/23 13:53:41;;;;;;;8.80;1.88;;;;;;;20.04;90.73;99722.88;8445685;28;20046;-48
2022/10/23 13:57:42;;;;;;;6.18;1.88;;;;;;;19.92;91.51;99705.41;8436713;28;20036;-47
2022/10/23 14:01:43;;;;;;;5.80;1.85;;;;;;;19.77;90.91;99704.88;8437512;28;20039;-46
2022/10/23 14:05:44;;;;;;;6.47;2.33;;;;;;;19.73;92.76;99690.75;8444549;28;20538;-47
2022/10/23 14:09:45;;;;;;;4.70;2.03;;;;;;;19.62;93.35;99687.84;8436574;28;20485;-51
2022/10/23 14:13:46;;;;;;;7.80;1.80;;;;;;;19.51;93.26;99697.59;8413998;28;20036;-48
2022/10/23 14:17:47;;;;;;;5.50;2.00;;;;;;;19.45;93.29;99685.63;8423789;28;20051;-47
2022/10/23 14:21:48;;;;;;;8.00;2.55;;;;;;;19.42;95.26;99687.94;8424640;28;20044;-47
2022/10/23 14:25:49;;;;;;;6.05;1.98;;;;;;;19.34;96.15;99674.50;8423867;28;20112;-48
2022/10/23 14:29:49;;;;;;;7.07;2.17;;;;;;;19.26;96.65;99675.59;8411825;28;20053;-47
2022/10/23 14:33:53;;;;;;;3.97;1.83;;;;;;;19.25;96.87;99679.31;8413763;28;20236;-48
2022/10/23 14:37:54;;;;;;;5.78;2.08;;;;;;;19.15;98.01;99670.72;8410503;28;20116;-48
2022/10/23 14:41:54;;;;;;;4.47;2.28;;;;;;;19.11;98.40;99680.44;8408152;28;20048;-48
2022/10/23 14:45:55;;;;;;;2.95;2.05;;;;;;;19.05;98.76;99664.88;8412394;28;20531;-47
2022/10/23 14:49:56;;;;;;;7.03;2.67;;;;;;;19.01;99.68;99647.19;8418346;28;20063;-48
2022/10/23 14:54:00;;;;;;;10.10;2.70;;;;;;;18.99;100.00;99676.69;8416144;28;20043;-48
2022/10/23 14:58:01;;;;;;;7.73;3.20;;;;;;;19.01;100.00;99691.03;8415420;28;20032;-50
2022/10/23 15:02:02;;;;;;;5.85;3.50;;;;;;;18.98;100.00;99705.16;8416911;28;20275;-48
2022/10/23 15:06:03;;;;;;;5.80;2.50;;;;;;;18.97;100.00;99699.88;8410148;28;20066;-47
2022/10/23 15:10:04;;;;;;;3.42;2.25;;;;;;;18.94;100.00;99717.56;8418549;28;20421;-49
2022/10/23 15:14:05;;;;;;;8.95;4.22;;;;;;;18.93;100.00;99715.91;8419692;28;20036;-47
2022/10/23 15:18:06;;;;;;;6.13;3.30;;;;;;;18.82;100.00;99713.81;8418376;28;20317;-48
2022/10/23 15:22:06;;;;;;;10.00;2.72;;;;;;;18.84;100.00;99717.19;8417813;28;20040;-51
2022/10/23 15:26:20;;;;;;;8.18;2.75;;;;;;;18.64;100.00;99705.41;8416500;28;20540;-48
2022/10/23 15:30:21;;;;;;;7.18;3.13;;;;;;;18.35;100.00;99694.84;8415328;28;20537;-48
2022/10/23 15:34:25;;;;;;;8.20;2.28;;;;;;;18.43;100.00;99686.47;8414304;28;20040;-48
2022/10/23 15:38:26;;;;;;;6.57;2.58;;;;;;;18.41;100.00;99683.09;8416955;28;20593;-49
2022/10/23 15:42:26;;;;;;;9.68;3.35;;;;;;;18.43;100.00;99686.47;8416801;28;20453;-48
2022/10/23 15:46:28;;;;;;;11.48;4.03;;;;;;;18.47;100.00;99701.41;8418827;28;20115;-48
2022/10/23 15:50:28;;;;;;;10.15;4.55;;;;;;;18.42;100.00;99698.47;8418567;28;20040;-49
2022/10/23 15:54:29;;;;;;;12.20;4.15;;;;;;;18.37;100.00;99701.00;8421124;28;20047;-48
2022/10/23 15:58:30;;;;;;;7.85;4.40;;;;;;;18.45;100.00;99692.56;8418822;27;20039;-48
2022/10/23 16:02:30;;;;;;;11.25;5.30;;;;;;;18.53;100.00;99700.56;8419226;28;20064;-48
2022/10/23 16:06:31;;;;;;;15.25;5.70;;;;;;;18.58;100.00;99699.94;8417356;28;20409;-48
2022/10/23 16:10:32;;;;;;;18.10;5.68;;;;;;;18.63;100.00;99691.94;8417920;28;20031;-48
2022/10/23 16:14:33;;;;;;;10.30;5.60;;;;;;;18.59;100.00;99697.00;8410633;28;20050;-48
2022/10/23 16:18:34;;;;;;;8.25;4.53;;;;;;;18.76;100.00;99706.44;8405513;28;20032;-48
2022/10/23 16:22:35;;;;;;;14.63;3.75;;;;;;;19.06;100.00;99720.53;8384951;28;20059;-49
2022/10/23 16:26:37;;;;;;;9.93;3.28;;;;;;;19.04;100.00;99764.56;8406904;28;20040;-48
2022/10/23 16:30:41;;;;;;;7.15;3.55;;;;;;;18.84;100.00;99771.09;8394676;28;20457;-48
2022/10/23 16:34:42;;;;;;;11.98;3.40;;;;;;;18.89;100.00;99774.91;8384515;28;20105;-48
2022/10/23 16:38:43;;;;;;;16.85;4.78;;;;;;;18.63;100.00;99709.19;8384897;28;20089;-48
2022/10/23 16:42:43;;;;;;;7.90;3.05;;;;;;;18.65;100.00;99684.34;8418902;28;20067;-49
2022/10/23 16:46:48;;;;;;;7.15;3.08;;;;;;;18.55;100.00;99690.25;8419200;28;20122;-48
2022/10/23 16:50:49;;;;;;;7.45;3.05;;;;;;;18.27;100.00;99697.78;8408707;28;20807;-49
2022/10/23 16:54:50;;;;;;;11.02;3.53;;;;;;;18.01;100.00;99696.94;8422819;28;20043;-48
2022/10/23 16:58:50;;;;;;;7.32;2.50;;;;;;;18.05;100.00;99701.78;8430652;28;20048;-48
2022/10/23 17:02:51;;;;;;;8.50;3.38;;;;;;;18.03;100.00;99679.28;8415155;28;20196;-50
2022/10/23 17:06:52;;;;;;;5.63;2.72;;;;;;;18.06;100.00;99688.94;8413922;28;20036;-48
2022/10/23 17:11:14;;;;;;;6.20;1.83;;;;;;;18.13;100.00;99701.59;8417713;28;20040;-48
2022/10/23 17:15:15;;;;;;;10.23;1.70;;;;;;;18.04;100.00;99678.22;8414108;28;20039;-48
2022/10/23 17:19:17;;;;;;;5.07;1.75;;;;;;;17.95;100.00;99687.66;8417441;28;20047;-48
2022/10/23 17:23:18;;;;;;;4.03;1.20;;;;;;;18.02;100.00;99688.50;8416648;28;20047;-48
2022/10/23 17:27:19;;;;;;;3.28;0.88;;;;;;;17.98;100.00;99714.59;8415454;28;20040;-48
2022/10/23 17:31:24;;;;;;;3.25;1.80;;;;;;;17.90;100.00;99695.63;8417512;28;20067;-49
2022/10/23 17:35:25;;;;;;;5.07;3.15;;;;;;;17.86;100.00;99694.38;8417207;28;20040;-48
2022/10/23 17:39:28;;;;;;;5.85;1.98;;;;;;;17.81;100.00;99699.63;8416234;28;20047;-48
2022/10/23 17:43:29;;;;;;;7.28;1.50;;;;;;;17.88;100.00;99692.28;8414804;28;20270;-49
2022/10/23 17:47:29;;;;;;;5.97;1.35;;;;;;;17.99;100.00;99699.03;8415679;28;20036;-48
2022/10/23 17:51:32;;;;;;;3.05;1.30;;;;;;;18.03;100.00;99701.16;8415164;28;20097;-48
2022/10/23 17:55:38;;;;;;;3.78;0.90;;;;;;;17.91;100.00;99697.34;8408727;28;20040;-48
2022/10/23 17:59:38;;;;;;;2.53;0.80;;;;;;;17.81;100.00;99688.69;8409616;28;20059;-48
2022/10/23 18:03:39;;;;;;;4.25;1.48;;;;;;;17.68;100.00;99682.38;8413027;28;20094;-48
2022/10/23 18:07:40;;;;;;;3.08;1.17;;;;;;;17.64;100.00;99679.19;8421759;28;20524;-52
2022/10/23 18:11:42;;;;;;;3.30;0.75;;;;;;;17.60;100.00;99688.84;8422450;28;20413;-48
2022/10/23 18:15:45;;;;;;;2.60;0.93;;;;;;;17.46;100.00;99671.56;8421825;28;20290;-48
2022/10/23 18:19:49;;;;;;;6.18;1.63;;;;;;;17.38;100.00;99674.44;8418610;28;20046;-48
2022/10/23 18:23:50;;;;;;;4.88;1.80;;;;;;;17.27;100.00;99674.19;8417607;28;20588;-48
2022/10/23 18:27:51;;;;;;;4.25;2.10;;;;;;;17.15;100.00;99678.56;8417212;28;20407;-49
2022/10/23 18:31:51;;;;;;;4.07;1.05;;;;;;;17.03;100.00;99680.16;8420816;28;20088;-48
2022/10/23 18:35:52;;;;;;;3.28;1.27;;;;;;;16.92;100.00;99667.94;8421831;28;20044;-49
2022/10/23 18:39:53;;;;;;;4.57;1.27;;;;;;;16.96;100.00;99679.31;8421261;28;20036;-48
2022/10/23 18:43:54;;;;;;;4.57;1.85;;;;;;;16.99;100.00;99678.91;8415584;28;20047;-49
2022/10/23 18:47:54;;;;;;;5.97;0.68;;;;;;;17.02;100.00;99662.09;8418325;28;20432;-48
2022/10/23 18:51:57;;;;;;;1.90;0.50;;;;;;;17.17;100.00;99681.94;8422499;28;20075;-48
2022/10/23 18:55:59;;;;;;;3.15;0.85;;;;;;;17.27;100.00;99676.94;8435583;28;20044;-50
2022/10/23 19:00:00;;;;;;;4.45;1.20;;;;;;;17.34;100.00;99677.78;8430133;28;20043;-49
2022/10/23 19:04:02;;;;;;;5.68;1.85;;;;;;;17.46;100.00;99676.19;8424162;28;20055;-48
2022/10/23 19:08:02;;;;;;;1.67;1.13;;;;;;;17.63;100.00;99659.19;8421981;28;20386;-48
2022/10/23 19:12:04;;;;;;;1.40;0.82;;;;;;;17.81;100.00;99664.06;8421384;28;20119;-49
2022/10/23 19:16:11;;;;;;;1.42;0.85;;;;;;;17.77;100.00;99651.03;8423209;28;20043;-48
2022/10/23 19:20:15;;;;;;;5.45;1.25;;;;;;;17.74;100.00;99644.09;8423331;28;20047;-48
2022/10/23 19:24:21;;;;;;;4.70;1.00;;;;;;;17.70;100.00;99645.56;8423574;28;20046;-48
2022/10/23 19:28:23;;;;;;;2.97;0.90;;;;;;;17.60;100.00;99656.06;8420284;28;20093;-49
2022/10/23 19:32:23;;;;;;;4.53;0.90;;;;;;;17.50;100.00;99669.25;8423765;28;20040;-49
2022/10/23 19:36:24;;;;;;;6.18;1.20;;;;;;;17.34;100.00;99651.31;8423202;28;20032;-48